Time;durP1;ratioP1;P1;durP2;ratioP2;P2;SDS_P1;SDS_P2;PMS_P1;PMS_P2;Temp;Humidity;BMP_temperature;BMP_pressure;BME280_temperature;BME280_humidity;BME280_pressure;Samples;Min_cycle;Max_cycle;Signal;HPM_P1;HPM_P2
2021/11/15 00:00:48;;;;;;;;;;;17.20;43.40;;;;;;8368256;28;20428;-49
2021/11/15 00:04:48;;;;;;;;;;;17.20;43.40;;;;;;8368194;28;20003;-53
2021/11/15 00:08:49;;;;;;;;;;;17.20;43.50;;;;;;8367688;28;19924;-52
2021/11/15 00:12:52;;;;;;;;;;;17.20;43.50;;;;;;8366612;28;19926;-50
2021/11/15 00:16:53;;;;;;;;;;;17.20;43.40;;;;;;8367546;28;19916;-50
2021/11/15 00:20:53;;;;;;;;;;;17.20;44.00;;;;;;8367497;28;20299;-52
2021/11/15 00:34:10;;;;;;;;;;;17.20;43.40;;;;;;8364667;28;19963;-49
2021/11/15 00:42:48;;;;;;;;;;;17.20;43.40;;;;;;8364827;28;19927;-50
2021/11/15 00:46:49;;;;;;;;;;;17.10;43.40;;;;;;8367113;28;20358;-50
2021/11/15 00:50:49;;;;;;;;;;;17.20;43.40;;;;;;8364825;28;19925;-50
2021/11/15 00:54:50;;;;;;;;;;;17.20;43.50;;;;;;8366956;28;19924;-50
2021/11/15 00:58:51;;;;;;;;;;;17.20;43.60;;;;;;8366494;28;19917;-49
2021/11/15 01:02:52;;;;;;;;;;;17.10;43.40;;;;;;8365743;28;19917;-49
2021/11/15 01:06:53;;;;;;;;;;;17.10;43.40;;;;;;8366230;28;19917;-49
2021/11/15 01:10:54;;;;;;;;;;;17.10;43.40;;;;;;8365999;28;19951;-50
2021/11/15 01:14:54;;;;;;;;;;;17.10;43.40;;;;;;8365689;28;19965;-49
2021/11/15 01:18:55;;;;;;;;;;;17.10;43.40;;;;;;8365975;28;20332;-49
2021/11/15 01:22:55;;;;;;;;;;;17.10;43.40;;;;;;8365816;28;19916;-50
2021/11/15 01:26:56;;;;;;;;;;;17.10;43.40;;;;;;8364804;28;20449;-51
2021/11/15 01:30:56;;;;;;;;;;;17.10;43.40;;;;;;8365582;28;19925;-50
2021/11/15 01:34:56;;;;;;;;;;;17.10;43.30;;;;;;8365603;28;20007;-54
2021/11/15 01:38:57;;;;;;;;;;;17.10;43.30;;;;;;8364904;28;19920;-53
2021/11/15 01:42:58;;;;;;;;;;;17.10;43.30;;;;;;8365218;28;19940;-52
2021/11/15 01:46:58;;;;;;;;;;;17.10;43.30;;;;;;8365038;28;19917;-50
2021/11/15 01:50:59;;;;;;;;;;;17.10;43.40;;;;;;8364318;28;20016;-51
2021/11/15 01:54:59;;;;;;;;;;;17.10;43.30;;;;;;8364679;28;20536;-49
2021/11/15 01:59:01;;;;;;;;;;;17.10;43.30;;;;;;8364505;28;20305;-51
2021/11/15 02:03:02;;;;;;;;;;;17.10;43.30;;;;;;8364149;28;19963;-50
2021/11/15 02:07:03;;;;;;;;;;;17.10;43.30;;;;;;8363561;28;19916;-52
2021/11/15 02:11:04;;;;;;;;;;;17.10;43.30;;;;;;8364337;28;19960;-50
2021/11/15 02:15:05;;;;;;;;;;;17.10;43.30;;;;;;8364169;28;19920;-50
2021/11/15 02:19:05;;;;;;;;;;;17.10;43.30;;;;;;8364353;28;19920;-50
2021/11/15 02:23:06;;;;;;;;;;;17.10;43.30;;;;;;8364119;28;19921;-50
2021/11/15 02:27:06;;;;;;;;;;;17.10;43.30;;;;;;8363512;28;20294;-50
2021/11/15 02:31:08;;;;;;;;;;;17.10;43.30;;;;;;8363547;28;19925;-50
2021/11/15 02:35:09;;;;;;;;;;;17.10;43.30;;;;;;8363953;28;19921;-49
2021/11/15 02:39:09;;;;;;;;;;;17.10;43.30;;;;;;8362445;28;20432;-49
2021/11/15 02:43:10;;;;;;;;;;;17.10;43.30;;;;;;8363557;28;19928;-50
2021/11/15 02:47:10;;;;;;;;;;;17.10;43.40;;;;;;8363504;28;19924;-50
2021/11/15 02:51:11;;;;;;;;;;;17.10;43.30;;;;;;8362928;28;20313;-49
2021/11/15 02:55:11;;;;;;;;;;;17.00;43.30;;;;;;8363702;28;19928;-50
2021/11/15 02:59:12;;;;;;;;;;;17.10;43.30;;;;;;8363609;28;19917;-50
2021/11/15 03:03:13;;;;;;;;;;;17.10;43.30;;;;;;8362734;28;19917;-50
2021/11/15 03:07:13;;;;;;;;;;;17.10;43.30;;;;;;8363639;28;19999;-49
2021/11/15 03:11:14;;;;;;;;;;;17.00;43.30;;;;;;8363258;28;20011;-49
2021/11/15 03:15:28;;;;;;;;;;;17.00;43.30;;;;;;8362921;28;19912;-50
2021/11/15 03:19:28;;;;;;;;;;;17.00;43.30;;;;;;8363351;28;19956;-51
2021/11/15 03:23:30;;;;;;;;;;;17.00;43.30;;;;;;8362480;28;19917;-50
2021/11/15 03:27:34;;;;;;;;;;;17.00;43.30;;;;;;8362998;28;20019;-49
2021/11/15 03:31:35;;;;;;;;;;;17.00;43.30;;;;;;8363227;28;19971;-50
2021/11/15 03:35:36;;;;;;;;;;;17.10;43.30;;;;;;8362622;28;19920;-49
2021/11/15 03:39:36;;;;;;;;;;;17.00;43.30;;;;;;8363047;28;19939;-50
2021/11/15 03:43:37;;;;;;;;;;;17.00;43.30;;;;;;8362762;28;19924;-50
2021/11/15 03:47:38;;;;;;;;;;;17.00;43.30;;;;;;8363436;28;19952;-50
2021/11/15 03:51:39;;;;;;;;;;;17.00;43.30;;;;;;8368545;28;20058;-53
2021/11/15 03:55:40;;;;;;;;;;;17.00;43.30;;;;;;8368407;28;19925;-51
2021/11/15 03:59:41;;;;;;;;;;;17.00;43.80;;;;;;8367835;28;20301;-50
2021/11/15 04:03:43;;;;;;;;;;;17.00;43.30;;;;;;8368213;28;19923;-51
2021/11/15 04:07:49;;;;;;;;;;;17.00;43.80;;;;;;8367977;28;19943;-50
2021/11/15 04:11:50;;;;;;;;;;;17.00;43.30;;;;;;8369497;28;19968;-51
2021/11/15 04:15:52;;;;;;;;;;;17.00;43.30;;;;;;8368282;28;19966;-53
2021/11/15 04:19:53;;;;;;;;;;;17.00;43.30;;;;;;8368044;28;19916;-52
2021/11/15 04:23:53;;;;;;;;;;;17.00;43.30;;;;;;8367170;28;20377;-53
2021/11/15 04:27:54;;;;;;;;;;;17.00;43.30;;;;;;8367950;28;19952;-52
2021/11/15 04:31:54;;;;;;;;;;;17.00;43.30;;;;;;8367627;28;19925;-53
2021/11/15 04:35:55;;;;;;;;;;;17.00;43.30;;;;;;8367306;28;19920;-53
2021/11/15 04:39:57;;;;;;;;;;;17.00;43.30;;;;;;8367321;28;19967;-52
2021/11/15 04:43:57;;;;;;;;;;;17.00;43.30;;;;;;8367141;28;19944;-50
2021/11/15 04:47:58;;;;;;;;;;;17.00;43.30;;;;;;8366343;28;20294;-50
2021/11/15 04:51:59;;;;;;;;;;;17.00;43.30;;;;;;8366487;28;19924;-50
2021/11/15 04:55:59;;;;;;;;;;;17.00;43.30;;;;;;8366625;28;19920;-50
2021/11/15 05:00:00;;;;;;;;;;;17.00;43.20;;;;;;8365324;28;20365;-50
2021/11/15 05:04:01;;;;;;;;;;;17.00;43.20;;;;;;8361443;28;20350;-50
2021/11/15 05:08:01;;;;;;;;;;;17.00;43.20;;;;;;8366571;28;19916;-49
2021/11/15 05:12:03;;;;;;;;;;;17.00;43.20;;;;;;8365591;28;19924;-51
2021/11/15 05:16:03;;;;;;;;;;;17.00;43.20;;;;;;8366203;28;19920;-50
2021/11/15 05:20:04;;;;;;;;;;;17.00;43.20;;;;;;8365890;28;19917;-51
2021/11/15 05:24:05;;;;;;;;;;;17.00;43.10;;;;;;8365167;28;19921;-51
2021/11/15 05:28:05;;;;;;;;;;;17.00;43.20;;;;;;8365505;28;19952;-51
2021/11/15 05:32:06;;;;;;;;;;;17.00;43.20;;;;;;8365431;28;19925;-53
2021/11/15 05:36:07;;;;;;;;;;;17.00;43.20;;;;;;8365250;28;19935;-52
2021/11/15 05:40:08;;;;;;;;;;;17.00;43.10;;;;;;8365412;28;20378;-51
2021/11/15 05:44:08;;;;;;;;;;;17.00;43.10;;;;;;8364866;28;19916;-52
2021/11/15 05:48:09;;;;;;;;;;;17.00;43.10;;;;;;8364465;28;20301;-53
2021/11/15 05:52:09;;;;;;;;;;;17.00;43.10;;;;;;8364768;28;20271;-53
2021/11/15 05:56:10;;;;;;;;;;;17.00;43.10;;;;;;8364959;28;19932;-54
2021/11/15 06:00:12;;;;;;;;;;;17.00;43.10;;;;;;8364894;28;19917;-51
2021/11/15 06:04:13;;;;;;;;;;;17.00;43.00;;;;;;8364802;28;20290;-52
2021/11/15 06:08:13;;;;;;;;;;;17.00;43.00;;;;;;8364437;28;19916;-52
2021/11/15 06:12:14;;;;;;;;;;;17.00;43.00;;;;;;8363732;28;20314;-53
2021/11/15 06:16:14;;;;;;;;;;;17.00;43.00;;;;;;8364786;28;19917;-50
2021/11/15 06:20:15;;;;;;;;;;;17.00;43.00;;;;;;8364065;28;20011;-54
2021/11/15 06:24:16;;;;;;;;;;;17.00;43.00;;;;;;8363414;28;19917;-53
2021/11/15 06:28:16;;;;;;;;;;;17.00;43.00;;;;;;8364110;28;19920;-50
2021/11/15 06:32:17;;;;;;;;;;;17.00;43.00;;;;;;8364107;28;20313;-50
2021/11/15 06:36:18;;;;;;;;;;;17.00;43.00;;;;;;8363693;28;20457;-50
2021/11/15 06:40:19;;;;;;;;;;;17.00;43.00;;;;;;8363621;28;19917;-52
2021/11/15 06:44:23;;;;;;;;;;;17.00;43.00;;;;;;8363705;28;20281;-50
2021/11/15 06:48:23;;;;;;;;;;;17.00;43.00;;;;;;8363322;28;19924;-49
2021/11/15 06:52:24;;;;;;;;;;;17.00;43.00;;;;;;8363407;28;20366;-51
2021/11/15 06:56:24;;;;;;;;;;;17.00;42.90;;;;;;8362967;28;20364;-48
2021/11/15 07:00:25;;;;;;;;;;;17.00;43.00;;;;;;8363519;28;20365;-50
2021/11/15 07:04:26;;;;;;;;;;;17.00;42.90;;;;;;8363425;28;20359;-51
2021/11/15 07:08:27;;;;;;;;;;;17.00;42.90;;;;;;8362883;28;19963;-48
2021/11/15 07:12:28;;;;;;;;;;;17.00;42.90;;;;;;8362993;28;20034;-52
2021/11/15 07:16:28;;;;;;;;;;;17.00;42.90;;;;;;8363435;28;19920;-49
2021/11/15 07:20:29;;;;;;;;;;;17.00;42.90;;;;;;8362693;28;19963;-49
2021/11/15 07:24:29;;;;;;;;;;;17.00;42.90;;;;;;8367308;28;19916;-50
2021/11/15 07:28:31;;;;;;;;;;;17.00;42.90;;;;;;8369172;28;19921;-49
2021/11/15 07:32:31;;;;;;;;;;;17.00;42.90;;;;;;8368840;28;19917;-49
2021/11/15 07:36:32;;;;;;;;;;;17.00;42.90;;;;;;8369116;28;19923;-49
2021/11/15 07:40:33;;;;;;;;;;;17.00;42.90;;;;;;8368840;28;19920;-51
2021/11/15 07:44:33;;;;;;;;;;;17.00;42.90;;;;;;8368431;28;19924;-52
2021/11/15 07:48:34;;;;;;;;;;;17.00;42.90;;;;;;8368500;28;19939;-52
2021/11/15 07:52:36;;;;;;;;;;;17.00;42.90;;;;;;8368928;28;20393;-49
2021/11/15 07:56:37;;;;;;;;;;;17.00;42.90;;;;;;8368010;28;20369;-49
2021/11/15 08:00:38;;;;;;;;;;;17.00;42.90;;;;;;8368427;28;20007;-51
2021/11/15 08:04:39;;;;;;;;;;;17.00;42.90;;;;;;8361602;28;19916;-53
2021/11/15 08:08:40;;;;;;;;;;;17.00;42.90;;;;;;8365863;28;20447;-49
2021/11/15 08:12:41;;;;;;;;;;;17.00;42.90;;;;;;8366485;28;20008;-51
2021/11/15 08:16:43;;;;;;;;;;;17.00;42.90;;;;;;8366485;28;19924;-51
2021/11/15 08:20:45;;;;;;;;;;;17.00;42.90;;;;;;8365693;28;19917;-49
2021/11/15 08:24:45;;;;;;;;;;;17.00;42.90;;;;;;8364010;28;19959;-52
2021/11/15 08:28:46;;;;;;;;;;;17.00;42.90;;;;;;8364648;28;19920;-50
2021/11/15 08:32:46;;;;;;;;;;;17.00;42.90;;;;;;8363312;28;20048;-53
2021/11/15 08:36:50;;;;;;;;;;;17.00;42.90;;;;;;8362396;28;19932;-52
2021/11/15 08:40:51;;;;;;;;;;;17.00;42.90;;;;;;8364640;28;19921;-50
2021/11/15 08:44:55;;;;;;;;;;;17.00;42.90;;;;;;8361947;28;20030;-49
2021/11/15 08:48:56;;;;;;;;;;;17.00;42.90;;;;;;8360877;28;19932;-52
2021/11/15 08:52:57;;;;;;;;;;;17.00;42.90;;;;;;8365690;28;20276;-53
2021/11/15 08:56:59;;;;;;;;;;;17.00;42.90;;;;;;8364539;28;19928;-52
2021/11/15 09:01:00;;;;;;;;;;;17.00;42.90;;;;;;8364989;28;20080;-50
2021/11/15 09:05:00;;;;;;;;;;;17.00;42.90;;;;;;8364747;28;19932;-53
2021/11/15 09:09:02;;;;;;;;;;;17.00;42.90;;;;;;8362677;28;19928;-52
2021/11/15 09:13:03;;;;;;;;;;;17.00;42.80;;;;;;8364895;28;19963;-50
2021/11/15 09:17:04;;;;;;;;;;;17.00;42.90;;;;;;8362962;28;19917;-52
2021/11/15 09:21:08;;;;;;;;;;;17.00;42.90;;;;;;8363740;28;19927;-53
2021/11/15 09:25:10;;;;;;;;;;;17.00;42.80;;;;;;8376353;28;19924;-53
2021/11/15 09:29:11;;;;;;;;;;;17.00;42.90;;;;;;8363845;28;20387;-50
2021/11/15 09:33:12;;;;;;;;;;;17.00;42.90;;;;;;8364373;28;19940;-53
2021/11/15 09:37:16;;;;;;;;;;;17.10;42.90;;;;;;8365071;28;20015;-51
2021/11/15 09:41:16;;;;;;;;;;;17.00;42.90;;;;;;8365100;28;19967;-53
2021/11/15 09:45:17;;;;;;;;;;;17.10;42.90;;;;;;8363987;28;19927;-53
2021/11/15 09:49:18;;;;;;;;;;;17.10;42.90;;;;;;8364704;28;20432;-52
2021/11/15 09:53:18;;;;;;;;;;;17.10;42.90;;;;;;8365030;28;20293;-52
2021/11/15 09:57:19;;;;;;;;;;;17.10;42.90;;;;;;8363911;28;19927;-53
2021/11/15 10:01:20;;;;;;;;;;;17.10;42.80;;;;;;8364420;28;19917;-51
2021/11/15 10:05:21;;;;;;;;;;;17.10;42.80;;;;;;8364361;28;19971;-51
2021/11/15 10:09:26;;;;;;;;;;;17.10;42.80;;;;;;8363638;28;20370;-52
2021/11/15 10:13:31;;;;;;;;;;;17.00;42.80;;;;;;8364215;28;19920;-51
2021/11/15 10:17:39;;;;;;;;;;;17.10;42.80;;;;;;8365936;28;19917;-49
2021/11/15 10:21:41;;;;;;;;;;;17.10;42.80;;;;;;8364167;28;19971;-50
2021/11/15 10:25:42;;;;;;;;;;;17.10;42.90;;;;;;8363876;28;20016;-52
2021/11/15 10:29:47;;;;;;;;;;;17.10;42.80;;;;;;8363141;28;19925;-53
2021/11/15 10:33:48;;;;;;;;;;;17.10;42.80;;;;;;8359518;28;19917;-51
2021/11/15 10:37:51;;;;;;;;;;;17.10;42.90;;;;;;8361769;28;19924;-52
2021/11/15 10:42:13;;;;;;;;;;;17.10;42.80;;;;;;8362043;28;19986;-50
2021/11/15 10:46:30;;;;;;;;;;;17.10;42.80;;;;;;8361793;28;19971;-51
2021/11/15 10:50:50;;;;;;;;;;;17.10;42.80;;;;;;8361875;28;19921;-48
2021/11/15 10:54:59;;;;;;;;;;;17.10;42.80;;;;;;8363565;28;19947;-51
2021/11/15 10:59:00;;;;;;;;;;;17.10;42.80;;;;;;8363803;28;19917;-50
2021/11/15 11:03:05;;;;;;;;;;;17.10;42.80;;;;;;8368760;28;20021;-52
2021/11/15 11:07:08;;;;;;;;;;;17.10;42.80;;;;;;8365865;28;20392;-50
2021/11/15 11:11:13;;;;;;;;;;;17.10;42.80;;;;;;8358794;28;20015;-49
2021/11/15 11:15:17;;;;;;;;;;;17.10;42.80;;;;;;8345813;28;20011;-50
2021/11/15 11:19:30;;;;;;;;;;;17.10;43.00;;;;;;8369411;28;20003;-50
2021/11/15 11:27:40;;;;;;;;;;;17.10;42.80;;;;;;8377175;28;20370;-50
2021/11/15 11:31:42;;;;;;;;;;;17.10;42.80;;;;;;8369108;28;19929;-50
2021/11/15 11:35:44;;;;;;;;;;;17.10;42.70;;;;;;8368737;28;19924;-50
2021/11/15 11:39:45;;;;;;;;;;;17.10;43.00;;;;;;8369034;28;19962;-49
2021/11/15 11:43:46;;;;;;;;;;;17.10;42.90;;;;;;8368488;28;19975;-48
2021/11/15 11:47:47;;;;;;;;;;;17.10;43.20;;;;;;8367480;28;19924;-52
2021/11/15 11:51:52;;;;;;;;;;;17.10;43.20;;;;;;8367802;28;19925;-51
2021/11/15 11:55:52;;;;;;;;;;;17.10;43.10;;;;;;8368950;28;19994;-51
2021/11/15 11:59:57;;;;;;;;;;;17.20;43.10;;;;;;8367779;28;19921;-51
2021/11/15 12:04:14;;;;;;;;;;;17.10;43.00;;;;;;8368429;28;20409;-51
2021/11/15 12:08:14;;;;;;;;;;;17.10;43.00;;;;;;8367956;28;19917;-50
2021/11/15 12:12:15;;;;;;;;;;;17.10;42.90;;;;;;8367241;28;20377;-52
2021/11/15 12:16:16;;;;;;;;;;;17.10;42.90;;;;;;8368156;28;19917;-50
2021/11/15 12:20:16;;;;;;;;;;;17.10;42.90;;;;;;8367699;28;19916;-48
2021/11/15 12:24:17;;;;;;;;;;;17.10;42.90;;;;;;8367219;28;19912;-48
2021/11/15 12:28:27;;;;;;;;;;;17.10;42.90;;;;;;8367532;28;19917;-49
2021/11/15 12:32:27;;;;;;;;;;;17.10;43.40;;;;;;8366972;28;19936;-50
2021/11/15 12:36:35;;;;;;;;;;;17.10;42.90;;;;;;8367460;28;19916;-49
2021/11/15 12:40:38;;;;;;;;;;;17.10;42.90;;;;;;8367311;28;19963;-50
2021/11/15 12:44:39;;;;;;;;;;;17.20;42.90;;;;;;8366412;28;19917;-50
2021/11/15 12:48:40;;;;;;;;;;;17.10;42.90;;;;;;8366967;28;19920;-48
2021/11/15 12:52:41;;;;;;;;;;;17.20;43.00;;;;;;8366664;28;19924;-49
2021/11/15 12:56:43;;;;;;;;;;;17.20;42.90;;;;;;8366010;28;20332;-50
2021/11/15 13:00:45;;;;;;;;;;;17.20;42.90;;;;;;8366299;28;19924;-50
2021/11/15 13:04:45;;;;;;;;;;;17.20;42.90;;;;;;8366441;28;19913;-50
2021/11/15 13:08:46;;;;;;;;;;;17.20;42.90;;;;;;8365526;28;20360;-54
2021/11/15 13:12:46;;;;;;;;;;;17.20;42.90;;;;;;8366239;28;19925;-48
2021/11/15 13:16:47;;;;;;;;;;;17.20;43.00;;;;;;8365844;28;20005;-49
2021/11/15 13:20:48;;;;;;;;;;;17.20;42.90;;;;;;8364815;28;19917;-50
2021/11/15 13:24:49;;;;;;;;;;;17.20;42.90;;;;;;8366030;28;19913;-53
2021/11/15 13:28:49;;;;;;;;;;;17.20;42.90;;;;;;8365105;28;19917;-51
2021/11/15 13:32:51;;;;;;;;;;;17.20;42.90;;;;;;8364886;28;19975;-49
2021/11/15 13:36:51;;;;;;;;;;;17.20;42.90;;;;;;8365147;28;20028;-50
2021/11/15 13:40:52;;;;;;;;;;;17.20;42.90;;;;;;8365161;28;19917;-49
2021/11/15 13:44:53;;;;;;;;;;;17.20;42.90;;;;;;8364743;28;19956;-50
2021/11/15 13:48:53;;;;;;;;;;;17.20;43.40;;;;;;8364830;28;19979;-49
2021/11/15 13:52:54;;;;;;;;;;;17.20;42.80;;;;;;8364948;28;19944;-55
2021/11/15 13:56:55;;;;;;;;;;;17.20;42.80;;;;;;8364085;28;19947;-49
2021/11/15 14:00:55;;;;;;;;;;;17.20;42.90;;;;;;8364867;28;19912;-52
2021/11/15 14:04:56;;;;;;;;;;;17.20;42.90;;;;;;8331520;28;20445;-53
2021/11/15 14:08:57;;;;;;;;;;;17.20;42.90;;;;;;8362030;28;20284;-51
2021/11/15 14:12:58;;;;;;;;;;;17.20;42.90;;;;;;8364399;28;19924;-49
2021/11/15 14:16:58;;;;;;;;;;;17.20;42.90;;;;;;8364474;28;19916;-52
2021/11/15 14:20:59;;;;;;;;;;;17.20;42.90;;;;;;8363555;28;19916;-52
2021/11/15 14:24:59;;;;;;;;;;;17.20;42.80;;;;;;8364582;28;20281;-49
2021/11/15 14:29:00;;;;;;;;;;;17.20;42.80;;;;;;8363981;28;19920;-50
2021/11/15 14:33:00;;;;;;;;;;;17.20;42.90;;;;;;8363122;28;20005;-51
2021/11/15 14:37:01;;;;;;;;;;;17.20;42.90;;;;;;8363744;28;20015;-54
2021/11/15 14:41:03;;;;;;;;;;;17.20;42.80;;;;;;8364111;28;19978;-53
2021/11/15 14:45:05;;;;;;;;;;;17.20;42.90;;;;;;8363169;28;19919;-51
2021/11/15 14:49:05;;;;;;;;;;;17.20;42.90;;;;;;8363636;28;20335;-48
2021/11/15 14:53:06;;;;;;;;;;;17.10;42.80;;;;;;8363444;28;19924;-50
2021/11/15 14:57:07;;;;;;;;;;;17.20;42.80;;;;;;8362560;28;19927;-50
2021/11/15 15:01:07;;;;;;;;;;;17.20;42.80;;;;;;8363065;28;19974;-50
2021/11/15 15:05:08;;;;;;;;;;;17.20;42.80;;;;;;8363453;28;20285;-48
2021/11/15 15:09:09;;;;;;;;;;;17.20;42.80;;;;;;8362589;28;19929;-51
2021/11/15 15:13:10;;;;;;;;;;;17.20;42.80;;;;;;8363513;28;19923;-51
2021/11/15 15:17:11;;;;;;;;;;;17.10;42.80;;;;;;8363080;28;19925;-50
2021/11/15 15:21:12;;;;;;;;;;;17.20;42.80;;;;;;8362518;28;19979;-52
2021/11/15 15:25:13;;;;;;;;;;;17.10;42.80;;;;;;8363519;28;19920;-52
2021/11/15 15:29:14;;;;;;;;;;;17.20;42.80;;;;;;8362599;28;19924;-51
2021/11/15 15:33:15;;;;;;;;;;;17.10;42.80;;;;;;8362427;28;19917;-48
2021/11/15 15:37:15;;;;;;;;;;;17.10;42.80;;;;;;8362772;28;19921;-49
2021/11/15 15:41:17;;;;;;;;;;;17.10;42.70;;;;;;8362756;28;19917;-51
2021/11/15 15:45:18;;;;;;;;;;;17.10;42.80;;;;;;8365846;28;19919;-51
2021/11/15 15:49:23;;;;;;;;;;;17.20;42.80;;;;;;8368558;28;20393;-50
2021/11/15 15:53:27;;;;;;;;;;;17.10;42.80;;;;;;8368706;28;19917;-51
2021/11/15 15:57:27;;;;;;;;;;;17.10;42.80;;;;;;8367866;28;19951;-50
2021/11/15 16:01:28;;;;;;;;;;;17.10;42.80;;;;;;8367730;28;20012;-48
2021/11/15 16:05:49;;;;;;;;;;;17.20;42.80;;;;;;8367492;28;20370;-51
2021/11/15 16:10:12;;;;;;;;;;;17.20;42.80;;;;;;8367453;28;21285;-50
2021/11/15 16:14:49;;;;;;;;;;;17.20;42.80;;;;;;8367925;28;19916;-49
2021/11/15 16:18:50;;;;;;;;;;;17.20;42.80;;;;;;8367447;28;19923;-48
2021/11/15 16:22:51;;;;;;;;;;;17.20;42.80;;;;;;8367677;28;19917;-49
2021/11/15 16:26:52;;;;;;;;;;;17.20;42.80;;;;;;8367181;28;19917;-50
2021/11/15 16:30:53;;;;;;;;;;;17.20;42.80;;;;;;8367634;28;20377;-51
2021/11/15 16:34:53;;;;;;;;;;;17.20;42.80;;;;;;8367369;28;19921;-49
2021/11/15 16:38:54;;;;;;;;;;;17.10;42.70;;;;;;8366809;28;19928;-54
2021/11/15 16:42:54;;;;;;;;;;;17.20;42.70;;;;;;8367073;28;20054;-48
2021/11/15 16:46:58;;;;;;;;;;;17.20;42.70;;;;;;8366983;28;19948;-49
2021/11/15 16:50:59;;;;;;;;;;;17.20;42.70;;;;;;8366509;28;19924;-52
2021/11/15 16:55:01;;;;;;;;;;;17.20;42.70;;;;;;8365834;28;20302;-50
2021/11/15 16:59:02;;;;;;;;;;;17.10;42.70;;;;;;8366751;28;20035;-52
2021/11/15 17:03:04;;;;;;;;;;;17.10;42.70;;;;;;8365511;28;20404;-51
2021/11/15 17:07:05;;;;;;;;;;;17.10;42.70;;;;;;8365833;28;20453;-49
2021/11/15 17:11:08;;;;;;;;;;;17.10;42.70;;;;;;8333330;28;19925;-50
2021/11/15 17:15:09;;;;;;;;;;;17.10;42.70;;;;;;8363379;28;20282;-52
2021/11/15 17:19:10;;;;;;;;;;;17.10;42.70;;;;;;8365767;28;19962;-49
2021/11/15 17:23:11;;;;;;;;;;;17.10;42.70;;;;;;8365699;28;19917;-51
2021/11/15 17:27:12;;;;;;;;;;;17.10;42.70;;;;;;8365127;28;19921;-52
2021/11/15 17:31:14;;;;;;;;;;;17.10;42.70;;;;;;8365766;28;19924;-51
2021/11/15 17:35:14;;;;;;;;;;;17.10;42.70;;;;;;8365410;28;20282;-50
2021/11/15 17:39:15;;;;;;;;;;;17.10;42.70;;;;;;8364784;28;19923;-51
2021/11/15 17:43:18;;;;;;;;;;;17.10;42.70;;;;;;8365174;28;19917;-50
2021/11/15 17:47:22;;;;;;;;;;;17.10;42.70;;;;;;8364923;28;19920;-50
2021/11/15 17:51:32;;;;;;;;;;;17.10;42.70;;;;;;8362306;28;19971;-51
2021/11/15 18:04:55;;;;;;;;;;;17.10;42.80;;;;;;8346209;28;19924;-50
2021/11/15 18:08:56;;;;;;;;;;;17.20;42.90;;;;;;8359642;28;20355;-48
2021/11/15 18:12:56;;;;;;;;;;;17.20;42.80;;;;;;8359969;28;19916;-50
2021/11/15 18:16:59;;;;;;;;;;;17.20;43.00;;;;;;8350425;28;20376;-51
2021/11/15 18:20:59;;;;;;;;;;;17.30;43.10;;;;;;8361281;28;19917;-52
2021/11/15 18:25:01;;;;;;;;;;;17.30;42.70;;;;;;8360999;28;19931;-50
2021/11/15 18:29:02;;;;;;;;;;;17.30;42.50;;;;;;8361657;28;19925;-49
2021/11/15 18:33:03;;;;;;;;;;;17.30;42.50;;;;;;8362563;28;20328;-52
2021/11/15 18:37:05;;;;;;;;;;;17.20;42.60;;;;;;8363626;28;19913;-48
2021/11/15 18:41:05;;;;;;;;;;;17.20;42.70;;;;;;8363937;28;19920;-49
2021/11/15 18:45:06;;;;;;;;;;;17.20;42.70;;;;;;8362816;28;19923;-49
2021/11/15 18:49:12;;;;;;;;;;;17.20;42.70;;;;;;8363210;28;19932;-48
2021/11/15 18:53:13;;;;;;;;;;;17.20;42.70;;;;;;8366379;28;19997;-51
2021/11/15 18:57:15;;;;;;;;;;;17.20;42.70;;;;;;8362275;28;20404;-52
2021/11/15 19:01:15;;;;;;;;;;;17.20;42.70;;;;;;8363342;28;19917;-52
2021/11/15 19:05:19;;;;;;;;;;;17.30;42.70;;;;;;8362870;28;19940;-50
2021/11/15 19:09:21;;;;;;;;;;;17.20;42.70;;;;;;8362531;28;19978;-52
2021/11/15 19:13:28;;;;;;;;;;;17.20;42.60;;;;;;8362809;28;19916;-49
2021/11/15 19:17:29;;;;;;;;;;;17.30;42.70;;;;;;8365062;28;19948;-53
2021/11/15 19:21:31;;;;;;;;;;;17.20;42.60;;;;;;8369099;28;20285;-49
2021/11/15 19:25:32;;;;;;;;;;;17.30;42.60;;;;;;8369198;28;19920;-51
2021/11/15 19:29:33;;;;;;;;;;;17.20;42.50;;;;;;8369284;28;19920;-52
2021/11/15 19:33:35;;;;;;;;;;;17.30;42.60;;;;;;8370005;28;19921;-48
2021/11/15 19:37:36;;;;;;;;;;;17.20;42.50;;;;;;8371787;28;19919;-50
2021/11/15 19:41:38;;;;;;;;;;;17.30;42.50;;;;;;8370524;28;19917;-48
2021/11/15 19:45:40;;;;;;;;;;;17.30;42.50;;;;;;8369104;28;19921;-49
2021/11/15 19:49:41;;;;;;;;;;;17.20;42.50;;;;;;8368353;28;20445;-50
2021/11/15 19:53:41;;;;;;;;;;;17.20;42.50;;;;;;8368038;28;19921;-52
2021/11/15 19:57:43;;;;;;;;;;;17.30;42.60;;;;;;8368626;28;19924;-50
2021/11/15 20:01:44;;;;;;;;;;;17.20;42.50;;;;;;8368497;28;19982;-49
2021/11/15 20:05:46;;;;;;;;;;;17.20;42.50;;;;;;8363094;28;19928;-48
2021/11/15 20:09:49;;;;;;;;;;;17.20;42.50;;;;;;8368263;28;19987;-51
2021/11/15 20:13:50;;;;;;;;;;;17.20;42.50;;;;;;8367685;28;19919;-51
2021/11/15 20:17:53;;;;;;;;;;;17.20;42.50;;;;;;8367175;28;19917;-49
2021/11/15 20:21:53;;;;;;;;;;;17.20;42.50;;;;;;8367810;28;19924;-50
2021/11/15 20:25:54;;;;;;;;;;;17.20;42.50;;;;;;8367454;28;20004;-49
2021/11/15 20:29:55;;;;;;;;;;;17.20;42.50;;;;;;8366410;28;19928;-50
2021/11/15 20:33:56;;;;;;;;;;;17.30;42.50;;;;;;8367235;28;20389;-49
2021/11/15 20:37:58;;;;;;;;;;;17.20;42.50;;;;;;8367147;28;19999;-51
2021/11/15 20:41:58;;;;;;;;;;;17.20;42.50;;;;;;8367219;28;19913;-49
2021/11/15 20:45:59;;;;;;;;;;;17.20;42.50;;;;;;8366764;28;19921;-49
2021/11/15 20:49:59;;;;;;;;;;;17.20;42.40;;;;;;8366495;28;20389;-53
2021/11/15 20:54:00;;;;;;;;;;;17.20;42.50;;;;;;8366025;28;20493;-51
2021/11/15 20:58:00;;;;;;;;;;;17.20;42.50;;;;;;8366835;28;20008;-49
2021/11/15 21:02:02;;;;;;;;;;;17.20;42.50;;;;;;8366426;28;20456;-51
2021/11/15 21:06:04;;;;;;;;;;;17.20;42.40;;;;;;8365574;28;19956;-51
2021/11/15 21:10:05;;;;;;;;;;;17.20;42.40;;;;;;8365851;28;19929;-50
2021/11/15 21:14:05;;;;;;;;;;;17.20;42.40;;;;;;8366040;28;19963;-49
2021/11/15 21:18:08;;;;;;;;;;;17.20;42.40;;;;;;8365318;28;19988;-52
2021/11/15 21:22:08;;;;;;;;;;;17.20;43.00;;;;;;8365796;28;19917;-49
2021/11/15 21:26:09;;;;;;;;;;;17.20;42.50;;;;;;8365648;28;20000;-49
2021/11/15 21:30:09;;;;;;;;;;;17.20;42.50;;;;;;8364836;28;19924;-50
2021/11/15 21:34:11;;;;;;;;;;;17.20;42.40;;;;;;8365174;28;20408;-50
2021/11/15 21:38:13;;;;;;;;;;;17.20;42.50;;;;;;8365304;28;19940;-52
2021/11/15 21:42:13;;;;;;;;;;;17.20;42.50;;;;;;8364214;28;20274;-53
2021/11/15 21:46:14;;;;;;;;;;;17.20;42.40;;;;;;8365570;28;19991;-49
2021/11/15 21:50:15;;;;;;;;;;;17.20;42.50;;;;;;8364684;28;19932;-48
2021/11/15 21:54:15;;;;;;;;;;;17.20;42.40;;;;;;8364105;28;19965;-50
2021/11/15 21:58:17;;;;;;;;;;;17.20;42.40;;;;;;8364838;28;19917;-50
2021/11/15 22:02:19;;;;;;;;;;;17.20;42.40;;;;;;8364638;28;19917;-50
2021/11/15 22:06:20;;;;;;;;;;;17.20;42.50;;;;;;8363656;28;20356;-49
2021/11/15 22:10:21;;;;;;;;;;;17.20;42.40;;;;;;8364370;28;19925;-49
2021/11/15 22:14:22;;;;;;;;;;;17.20;42.40;;;;;;8364130;28;19921;-49
2021/11/15 22:18:26;;;;;;;;;;;17.20;42.50;;;;;;8363724;28;20346;-49
2021/11/15 22:22:27;;;;;;;;;;;17.20;42.40;;;;;;8364089;28;20378;-50
2021/11/15 22:26:28;;;;;;;;;;;17.20;42.50;;;;;;8363390;28;19913;-49
2021/11/15 22:30:28;;;;;;;;;;;17.20;42.50;;;;;;8363482;28;19925;-49
2021/11/15 22:34:29;;;;;;;;;;;17.10;42.40;;;;;;8363896;28;20449;-49
2021/11/15 22:38:29;;;;;;;;;;;17.10;42.40;;;;;;8363312;28;19924;-50
2021/11/15 22:42:30;;;;;;;;;;;17.10;42.40;;;;;;8363898;28;20293;-51
2021/11/15 22:46:30;;;;;;;;;;;17.20;42.40;;;;;;8363629;28;19948;-48
2021/11/15 22:50:31;;;;;;;;;;;17.10;42.40;;;;;;8362753;28;20385;-47
2021/11/15 22:54:32;;;;;;;;;;;17.10;42.40;;;;;;8365664;28;19920;-49
2021/11/15 22:58:32;;;;;;;;;;;17.10;42.40;;;;;;8370374;28;19917;-49
2021/11/15 23:02:33;;;;;;;;;;;17.10;42.50;;;;;;8368420;28;20348;-51
2021/11/15 23:06:33;;;;;;;;;;;17.10;42.40;;;;;;8369095;28;19960;-49
2021/11/15 23:10:34;;;;;;;;;;;17.10;42.40;;;;;;8369601;28;19925;-49
2021/11/15 23:14:34;;;;;;;;;;;17.10;42.40;;;;;;8369290;28;19917;-49
2021/11/15 23:18:35;;;;;;;;;;;17.10;42.50;;;;;;8369763;28;19919;-49
2021/11/15 23:22:36;;;;;;;;;;;17.10;42.50;;;;;;8369316;28;20008;-52
2021/11/15 23:26:37;;;;;;;;;;;17.10;42.50;;;;;;8369073;28;20358;-51
2021/11/15 23:30:41;;;;;;;;;;;17.10;42.50;;;;;;8369473;28;19963;-49
2021/11/15 23:34:42;;;;;;;;;;;17.10;42.50;;;;;;8368913;28;19973;-49
2021/11/15 23:38:43;;;;;;;;;;;17.10;42.50;;;;;;8368798;28;19917;-51
2021/11/15 23:42:44;;;;;;;;;;;17.10;42.50;;;;;;8368792;28;19917;-52
2021/11/15 23:46:44;;;;;;;;;;;17.10;42.50;;;;;;8368877;28;19963;-49
2021/11/15 23:50:45;;;;;;;;;;;17.10;42.50;;;;;;8368106;28;19933;-48